Time;durP1;ratioP1;P1;durP2;ratioP2;P2;SDS_P1;SDS_P2;PMS_P1;PMS_P2;Temp;Humidity;BMP_temperature;BMP_pressure;BME280_temperature;BME280_humidity;BME280_pressure;Samples;Min_cycle;Max_cycle;Signal;HPM_P1;HPM_P2
2022/05/09 00:01:22;;;;;;;19.50;10.25;;;;;;;11.41;100.00;98535.72;5095926;28;20054;-87
2022/05/09 00:03:48;;;;;;;14.85;9.20;;;;;;;11.50;100.00;98542.22;5099258;28;20024;-82
2022/05/09 00:06:14;;;;;;;11.23;8.23;;;;;;;11.47;100.00;98541.97;5100602;28;20892;-84
2022/05/09 00:08:42;;;;;;;15.43;9.38;;;;;;;11.26;100.00;98535.84;5101882;28;20035;-85
2022/05/09 00:11:09;;;;;;;14.82;8.88;;;;;;;11.26;100.00;98538.59;5098545;28;20074;-82
2022/05/09 00:13:35;;;;;;;13.20;8.65;;;;;;;11.25;100.00;98550.63;5101781;28;20107;-85
2022/05/09 00:16:01;;;;;;;17.17;8.88;;;;;;;11.19;100.00;98554.53;5101609;28;20035;-83
2022/05/09 00:18:26;;;;;;;14.70;9.95;;;;;;;11.24;100.00;98563.50;5102896;28;20059;-87
2022/05/09 00:20:52;;;;;;;18.88;8.57;;;;;;;11.22;100.00;98545.72;5099851;28;20099;-88
2022/05/09 00:23:17;;;;;;;16.27;8.05;;;;;;;11.12;100.00;98534.88;5099753;28;20084;-86
2022/05/09 00:25:42;;;;;;;15.00;8.85;;;;;;;11.16;100.00;98541.41;5100987;28;20032;-87
2022/05/09 00:28:08;;;;;;;16.65;9.27;;;;;;;11.07;100.00;98537.63;5099306;28;20400;-85
2022/05/09 00:30:33;;;;;;;13.93;8.82;;;;;;;11.04;100.00;98549.97;5099626;28;20028;-84
2022/05/09 00:32:59;;;;;;;13.80;8.40;;;;;;;10.98;100.00;98553.03;5100318;28;20023;-84
2022/05/09 00:35:24;;;;;;;13.15;8.93;;;;;;;10.99;100.00;98565.63;5099549;28;20096;-86
2022/05/09 00:37:50;;;;;;;12.90;9.07;;;;;;;10.85;100.00;98556.38;5099033;28;20016;-82
2022/05/09 00:40:16;;;;;;;13.88;8.75;;;;;;;10.86;100.00;98553.38;5098743;28;20536;-86
2022/05/09 00:42:50;;;;;;;17.80;8.80;;;;;;;10.85;100.00;98550.91;5097851;28;20043;-82
2022/05/09 00:45:18;;;;;;;14.10;8.18;;;;;;;10.83;100.00;98540.25;5098041;28;20058;-84
2022/05/09 00:47:44;;;;;;;12.70;9.18;;;;;;;11.03;100.00;98537.38;5095703;28;20397;-85
2022/05/09 00:50:12;;;;;;;14.90;8.35;;;;;;;11.18;100.00;98558.38;5095405;28;20035;-85
2022/05/09 00:52:50;;;;;;;13.88;8.45;;;;;;;11.24;100.00;98557.25;5094483;28;20031;-87
2022/05/09 00:55:24;;;;;;;13.70;7.90;;;;;;;11.32;100.00;98566.75;5094883;28;20024;-85
2022/05/09 00:57:57;;;;;;;13.52;8.65;;;;;;;11.21;100.00;98558.59;5095556;28;20016;-82
2022/05/09 01:00:25;;;;;;;15.18;8.70;;;;;;;11.22;100.00;98567.63;5095406;28;20039;-86
2022/05/09 01:02:59;;;;;;;11.30;7.72;;;;;;;11.20;100.00;98567.13;5097915;28;20020;-85
2022/05/09 01:05:28;;;;;;;9.40;7.13;;;;;;;11.14;100.00;98571.81;5098000;28;20111;-87
2022/05/09 01:07:55;;;;;;;12.55;8.50;;;;;;;11.07;100.00;98554.88;5097051;28;20118;-87
2022/05/09 01:10:33;;;;;;;19.05;9.02;;;;;;;11.06;100.00;98563.34;5097617;28;20024;-85
2022/05/09 01:13:05;;;;;;;13.18;8.55;;;;;;;11.24;100.00;98560.78;5091188;28;20032;-86
2022/05/09 01:15:31;;;;;;;12.73;8.68;;;;;;;11.33;100.00;98569.22;5098420;28;20023;-87
2022/05/09 01:17:58;;;;;;;10.68;7.80;;;;;;;11.27;100.00;98562.97;5098588;28;20086;-84
2022/05/09 01:20:24;;;;;;;14.48;8.65;;;;;;;11.13;100.00;98569.34;5101039;28;20106;-82
2022/05/09 01:22:49;;;;;;;11.77;8.60;;;;;;;11.00;100.00;98559.03;5096196;28;20059;-81
2022/05/09 01:25:17;;;;;;;11.07;8.25;;;;;;;11.10;100.00;98575.38;5101057;28;20032;-86
2022/05/09 01:27:45;;;;;;;13.32;7.80;;;;;;;11.18;100.00;98563.84;5096767;28;20078;-88
2022/05/09 01:30:21;;;;;;;13.43;8.35;;;;;;;11.23;100.00;98564.63;5095980;28;20385;-89
2022/05/09 01:33:00;;;;;;;12.18;7.82;;;;;;;11.21;100.00;98566.03;5097183;28;20063;-87
2022/05/09 01:35:34;;;;;;;12.45;8.27;;;;;;;11.19;100.00;98563.56;5095342;28;20069;-85
2022/05/09 01:38:28;;;;;;;10.77;7.95;;;;;;;11.17;100.00;98552.06;5096377;28;20397;-86
2022/05/09 01:40:54;;;;;;;11.98;7.90;;;;;;;11.15;100.00;98561.69;5096574;28;20078;-86
2022/05/09 01:43:41;;;;;;;11.63;8.05;;;;;;;11.24;100.00;98558.03;5096308;28;20028;-87
2022/05/09 01:46:13;;;;;;;10.52;7.28;;;;;;;11.16;100.00;98560.56;5094244;28;20036;-84
2022/05/09 01:51:23;;;;;;;10.80;7.63;;;;;;;11.22;100.00;98556.69;5096307;28;20042;-86
2022/05/09 01:53:52;;;;;;;12.40;7.55;;;;;;;11.20;100.00;98564.38;5095635;28;20107;-83
2022/05/09 01:56:38;;;;;;;12.02;7.13;;;;;;;11.25;100.00;98567.91;5096929;28;20039;-84
2022/05/09 01:59:06;;;;;;;14.38;8.38;;;;;;;11.09;100.00;98562.78;5097285;28;20424;-85
2022/05/09 02:01:37;;;;;;;12.65;7.57;;;;;;;11.02;100.00;98557.66;5097414;28;20032;-87
2022/05/09 02:04:04;;;;;;;15.65;8.65;;;;;;;11.01;100.00;98566.13;5092245;28;20036;-83
2022/05/09 02:06:29;;;;;;;12.60;8.07;;;;;;;11.13;100.00;98567.44;5084314;28;20048;-81
2022/05/09 02:08:55;;;;;;;22.10;9.38;;;;;;;11.27;100.00;98575.84;5081794;28;20051;-82
2022/05/09 02:11:20;;;;;;;14.35;8.38;;;;;;;11.19;100.00;98563.56;5097595;28;20028;-83
2022/05/09 02:13:46;;;;;;;17.02;9.43;;;;;;;11.33;100.00;98573.88;5095940;28;20028;-85
2022/05/09 02:16:11;;;;;;;13.75;8.90;;;;;;;11.11;100.00;98574.28;5095583;28;20047;-86
2022/05/09 02:18:37;;;;;;;12.50;8.35;;;;;;;11.05;100.00;98562.56;5093962;28;20499;-88
2022/05/09 02:21:03;;;;;;;12.75;8.38;;;;;;;11.07;100.00;98573.22;5095728;28;20080;-82
2022/05/09 02:23:29;;;;;;;13.73;7.90;;;;;;;10.96;100.00;98558.78;5077087;28;20036;-81
2022/05/09 02:25:54;;;;;;;18.45;8.35;;;;;;;11.07;100.00;98567.75;5076134;28;20033;-87
2022/05/09 02:28:22;;;;;;;13.15;8.88;;;;;;;11.08;100.00;98558.44;5076059;28;20389;-87
2022/05/09 02:30:48;;;;;;;12.55;7.72;;;;;;;11.31;100.00;98565.13;5075950;28;20016;-83
2022/05/09 02:33:14;;;;;;;13.70;8.30;;;;;;;11.38;100.00;98571.09;5077104;28;20047;-88
2022/05/09 02:35:41;;;;;;;15.52;8.45;;;;;;;11.42;100.00;98561.22;5075236;28;20024;-87
2022/05/09 02:38:07;;;;;;;12.32;7.38;;;;;;;11.48;100.00;98562.81;5074375;28;20020;-83
2022/05/09 02:40:35;;;;;;;11.48;7.95;;;;;;;11.41;100.00;98563.13;5074707;28;20105;-88
2022/05/09 02:43:01;;;;;;;11.32;7.80;;;;;;;11.25;100.00;98559.69;5074981;28;20020;-85
2022/05/09 02:45:27;;;;;;;11.25;8.00;;;;;;;11.20;100.00;98564.38;5074933;28;20106;-88
2022/05/09 02:47:54;;;;;;;9.80;7.15;;;;;;;11.26;100.00;98569.53;5073459;28;20469;-89
2022/05/09 02:50:21;;;;;;;10.95;7.38;;;;;;;11.32;100.00;98570.31;5075054;28;20035;-88
2022/05/09 02:52:51;;;;;;;13.95;7.47;;;;;;;11.34;100.00;98565.34;5075524;28;20427;-86
2022/05/09 02:55:19;;;;;;;11.13;7.95;;;;;;;11.16;100.00;98569.59;5075811;28;20389;-87
2022/05/09 02:57:45;;;;;;;12.32;7.38;;;;;;;11.08;100.00;98561.19;5074838;28;20477;-85
2022/05/09 03:00:14;;;;;;;12.45;7.93;;;;;;;11.19;100.00;98568.22;5073402;28;20056;-81
2022/05/09 03:02:40;;;;;;;12.30;7.72;;;;;;;11.21;100.00;98569.56;5077056;28;20418;-83
2022/05/09 03:05:07;;;;;;;12.05;7.90;;;;;;;11.21;100.00;98566.03;5079843;28;20121;-86
2022/05/09 03:07:34;;;;;;;15.10;7.57;;;;;;;11.29;100.00;98570.88;5081137;28;20764;-81
2022/05/09 03:10:00;;;;;;;10.95;7.68;;;;;;;11.09;100.00;98571.81;5080485;28;20099;-86
2022/05/09 03:12:25;;;;;;;11.38;7.97;;;;;;;11.14;100.00;98577.28;5098503;28;20165;-84
2022/05/09 03:14:51;;;;;;;12.02;7.53;;;;;;;11.20;100.00;98567.13;5100537;28;20073;-87
2022/05/09 03:17:16;;;;;;;12.95;8.25;;;;;;;11.13;100.00;98563.88;5097673;28;20024;-87
2022/05/09 03:19:42;;;;;;;12.65;7.63;;;;;;;11.10;100.00;98569.91;5099257;28;20028;-85
2022/05/09 03:22:08;;;;;;;12.43;8.63;;;;;;;11.17;100.00;98564.94;5099330;28;20036;-89
2022/05/09 03:24:34;;;;;;;14.65;8.80;;;;;;;11.33;100.00;98569.22;5098545;28;20046;-79
2022/05/09 03:27:01;;;;;;;13.95;8.30;;;;;;;11.19;100.00;98562.72;5101289;28;20638;-86
2022/05/09 03:29:28;;;;;;;15.60;8.15;;;;;;;11.15;100.00;98567.16;5102532;28;20028;-85
2022/05/09 03:31:53;;;;;;;14.05;8.15;;;;;;;11.01;100.00;98577.09;5099451;28;20114;-84
2022/05/09 03:34:19;;;;;;;14.93;8.43;;;;;;;11.14;100.00;98571.00;5100159;28;20100;-84
2022/05/09 03:36:45;;;;;;;14.20;8.20;;;;;;;11.17;100.00;98576.72;5100196;28;20012;-86
2022/05/09 03:39:11;;;;;;;12.93;8.57;;;;;;;11.21;100.00;98566.81;5099849;28;20032;-85
2022/05/09 03:41:36;;;;;;;10.82;7.55;;;;;;;11.20;100.00;98569.84;5098773;28;20024;-83
2022/05/09 03:44:03;;;;;;;11.77;7.70;;;;;;;11.20;100.00;98578.06;5098829;28;20036;-87
2022/05/09 03:46:28;;;;;;;12.05;7.82;;;;;;;11.02;100.00;98581.47;5098133;28;20036;-86
2022/05/09 03:48:54;;;;;;;17.45;7.97;;;;;;;11.01;100.00;98583.38;5097602;28;20049;-85
2022/05/09 03:51:19;;;;;;;10.23;7.32;;;;;;;11.01;100.00;98591.59;5100033;28;20464;-87
2022/05/09 03:53:45;;;;;;;13.02;8.10;;;;;;;11.11;100.00;98598.94;5099722;28;20126;-85
2022/05/09 03:56:12;;;;;;;13.90;8.18;;;;;;;11.15;100.00;98589.84;5100347;28;20392;-85
2022/05/09 03:58:37;;;;;;;16.67;9.00;;;;;;;11.16;100.00;98593.41;5100374;28;21558;-85
2022/05/09 04:01:03;;;;;;;13.20;8.88;;;;;;;11.14;100.00;98592.91;5099267;28;20028;-90
2022/05/09 04:03:29;;;;;;;15.90;9.23;;;;;;;11.07;100.00;98587.72;5099245;28;20028;-84
2022/05/09 04:05:55;;;;;;;12.88;8.38;;;;;;;11.11;100.00;98586.06;5098990;28;20042;-82
2022/05/09 04:08:21;;;;;;;15.40;8.52;;;;;;;11.12;100.00;98598.63;5099605;28;20028;-85
2022/05/09 04:10:47;;;;;;;16.92;9.48;;;;;;;11.12;100.00;98595.91;5101769;28;20023;-88
2022/05/09 04:13:16;;;;;;;24.02;9.88;;;;;;;11.32;100.00;98605.91;5101269;28;20107;-85
2022/05/09 04:18:31;;;;;;;14.13;8.90;;;;;;;11.52;100.00;98611.28;5097842;28;20062;-85
2022/05/09 04:20:56;;;;;;;13.15;9.68;;;;;;;11.58;100.00;98615.59;5097523;28;20032;-85
2022/05/09 04:23:22;;;;;;;17.98;8.93;;;;;;;11.63;100.00;98612.81;5097896;28;20024;-85
2022/05/09 04:25:48;;;;;;;15.77;9.02;;;;;;;11.64;100.00;98619.13;5097128;28;20020;-83
2022/05/09 04:28:17;;;;;;;17.90;9.85;;;;;;;11.55;100.00;98604.41;5097541;28;20032;-86
2022/05/09 04:30:43;;;;;;;22.15;9.55;;;;;;;11.71;100.00;98620.47;5099280;28;20024;-87
2022/05/09 04:33:08;;;;;;;15.15;8.45;;;;;;;11.89;100.00;98615.38;5097613;28;20020;-86
2022/05/09 04:35:36;;;;;;;17.33;9.27;;;;;;;11.82;100.00;98613.78;5096755;28;20055;-83
2022/05/09 04:38:02;;;;;;;11.85;7.97;;;;;;;11.74;100.00;98619.91;5098180;28;20020;-84
2022/05/09 04:40:30;;;;;;;13.73;8.77;;;;;;;11.68;100.00;98625.69;5099379;28;20035;-85
2022/05/09 04:42:57;;;;;;;11.75;8.23;;;;;;;11.58;100.00;98632.03;5100167;28;20553;-90
2022/05/09 04:45:23;;;;;;;12.35;7.93;;;;;;;11.52;100.00;98635.94;5100384;28;20048;-83
2022/05/09 04:47:50;;;;;;;11.55;7.50;;;;;;;11.58;100.00;98632.03;5100587;28;20036;-85
2022/05/09 04:50:19;;;;;;;12.80;8.48;;;;;;;11.54;100.00;98627.41;5099905;28;20044;-89
2022/05/09 04:52:45;;;;;;;14.35;8.48;;;;;;;11.43;100.00;98629.41;5092959;28;20020;-86
2022/05/09 04:55:12;;;;;;;17.65;9.45;;;;;;;11.68;100.00;98618.25;5087736;28;20012;-82
2022/05/09 04:57:38;;;;;;;13.20;8.93;;;;;;;11.81;100.00;98623.13;5073406;28;20389;-77
2022/05/09 05:00:10;;;;;;;17.10;8.93;;;;;;;11.82;100.00;98616.53;5081760;28;20402;-81
2022/05/09 05:02:36;;;;;;;13.13;8.63;;;;;;;11.82;100.00;98619.28;5101355;28;20078;-85
2022/05/09 05:05:03;;;;;;;13.65;9.65;;;;;;;11.75;100.00;98632.47;5084181;28;20615;-86
2022/05/09 05:07:28;;;;;;;12.77;8.80;;;;;;;11.42;100.00;98641.47;5096192;28;20477;-81
2022/05/09 05:09:54;;;;;;;20.02;10.05;;;;;;;11.39;100.00;98636.56;5079534;28;20029;-82
2022/05/09 05:12:19;;;;;;;14.88;9.07;;;;;;;11.35;100.00;98649.16;5081021;28;20036;-82
2022/05/09 05:14:45;;;;;;;13.35;9.52;;;;;;;11.50;100.00;98643.59;5085130;28;20064;-83
2022/05/09 05:17:11;;;;;;;14.68;9.70;;;;;;;11.45;100.00;98653.78;5105427;28;20024;-91
2022/05/09 05:19:40;;;;;;;11.82;8.60;;;;;;;11.53;100.00;98656.72;5088805;28;20485;-85
2022/05/09 05:22:06;;;;;;;13.73;9.45;;;;;;;11.64;100.00;98652.81;5085036;28;20025;-87
2022/05/09 05:24:36;;;;;;;15.15;9.52;;;;;;;11.51;100.00;98649.91;5097343;28;20384;-83
2022/05/09 05:27:02;;;;;;;13.25;9.20;;;;;;;11.67;100.00;98648.69;5087388;28;20477;-87
2022/05/09 05:29:27;;;;;;;14.73;9.80;;;;;;;11.80;100.00;98657.13;5096184;28;20115;-83
2022/05/09 05:31:53;;;;;;;14.65;10.07;;;;;;;11.99;100.00;98664.66;5093403;28;20030;-81
2022/05/09 05:34:18;;;;;;;17.88;10.27;;;;;;;12.04;100.00;98661.84;5094455;28;20036;-80
2022/05/09 05:36:50;;;;;;;14.02;8.85;;;;;;;12.07;100.00;98659.34;5094236;28;20099;-83
2022/05/09 05:39:16;;;;;;;14.45;9.98;;;;;;;12.27;100.00;98661.94;5097894;28;20057;-85
2022/05/09 05:41:43;;;;;;;16.45;10.15;;;;;;;12.34;100.00;98661.59;5100559;28;20139;-79
2022/05/09 05:44:11;;;;;;;16.38;10.10;;;;;;;12.32;100.00;98663.78;5092074;28;20047;-79
2022/05/09 05:46:38;;;;;;;16.92;9.85;;;;;;;12.35;100.00;98669.53;5092649;28;20024;-74
2022/05/09 05:49:04;;;;;;;14.48;9.02;;;;;;;12.30;100.00;98666.00;5093688;28;20526;-75
2022/05/09 05:51:29;;;;;;;13.05;9.48;;;;;;;12.40;100.00;98676.91;5093711;28;20032;-75
2022/05/09 05:53:58;;;;;;;18.67;9.68;;;;;;;12.39;100.00;98675.25;5090350;28;20047;-78
2022/05/09 05:56:24;;;;;;;14.07;8.68;;;;;;;12.66;100.00;98689.25;5092308;28;20107;-74
2022/05/09 05:58:49;;;;;;;16.40;9.32;;;;;;;12.63;100.00;98691.75;5091432;28;20063;-74
2022/05/09 06:01:14;;;;;;;17.60;9.40;;;;;;;12.22;100.00;98692.13;5091723;28;20093;-82
2022/05/09 06:03:40;;;;;;;14.05;9.98;;;;;;;12.01;100.00;98684.38;5101435;28;20067;-80
2022/05/09 06:06:05;;;;;;;16.48;10.52;;;;;;;12.23;100.00;98687.47;5101138;28;20143;-86
2022/05/09 06:08:30;;;;;;;14.60;9.40;;;;;;;12.62;100.00;98699.19;5103815;28;20028;-89
2022/05/09 06:10:56;;;;;;;17.50;9.57;;;;;;;12.49;100.00;98712.75;5110306;28;20035;-87
2022/05/09 06:13:21;;;;;;;13.57;9.80;;;;;;;12.60;100.00;98697.81;5113160;28;20048;-89
2022/05/09 06:15:50;;;;;;;16.60;10.73;;;;;;;13.09;100.00;98705.81;5116370;28;20020;-85
2022/05/09 06:18:15;;;;;;;15.63;11.10;;;;;;;13.41;100.00;98708.69;5113147;28;20020;-83
2022/05/09 06:20:43;;;;;;;21.45;9.52;;;;;;;13.96;100.00;98709.84;5114835;28;20031;-84
2022/05/09 06:23:12;;;;;;;16.45;10.15;;;;;;;14.22;100.00;98710.25;5115301;28;20004;-84
2022/05/09 06:25:37;;;;;;;16.42;9.63;;;;;;;14.49;100.00;98707.63;5114432;28;20035;-85
2022/05/09 06:28:05;;;;;;;15.43;9.57;;;;;;;14.64;100.00;98704.59;5112166;28;20036;-83
2022/05/09 06:30:31;;;;;;;12.07;8.88;;;;;;;14.89;100.00;98723.41;5107256;28;20020;-83
2022/05/09 06:32:58;;;;;;;15.15;8.45;;;;;;;15.30;100.00;98693.09;5099520;28;20035;-88
2022/05/09 06:35:26;;;;;;;14.13;8.43;;;;;;;15.42;100.00;98714.63;5093177;28;20032;-80
2022/05/09 06:38:00;;;;;;;12.57;8.63;;;;;;;15.39;100.00;98704.19;5086095;28;20051;-87
2022/05/09 06:40:30;;;;;;;15.38;9.30;;;;;;;15.62;100.00;98714.22;5088374;28;20051;-85
2022/05/09 06:42:56;;;;;;;17.20;9.07;;;;;;;15.11;100.00;98719.94;5090297;28;20027;-79
2022/05/09 06:45:23;;;;;;;12.75;8.73;;;;;;;15.13;100.00;98711.38;5089734;28;20044;-79
2022/05/09 06:47:52;;;;;;;15.30;8.93;;;;;;;15.50;100.00;98716.69;5093242;28;20451;-84
2022/05/09 06:50:20;;;;;;;12.43;8.02;;;;;;;15.83;100.00;98718.16;5089804;28;20028;-80
2022/05/09 06:52:45;;;;;;;14.45;8.23;;;;;;;15.78;100.00;98715.50;5088332;28;20031;-81
2022/05/09 06:55:12;;;;;;;15.02;7.10;;;;;;;15.44;100.00;98717.91;5086650;28;20050;-81
2022/05/09 06:57:42;;;;;;;11.35;7.57;;;;;;;15.43;100.00;98716.25;5089544;28;20028;-81
2022/05/09 07:00:13;;;;;;;12.13;7.97;;;;;;;15.77;100.00;98724.91;5087094;28;20047;-76
2022/05/09 07:02:38;;;;;;;12.18;8.88;;;;;;;15.88;100.00;98725.50;5085520;28;20411;-73
2022/05/09 07:05:07;;;;;;;15.02;9.38;;;;;;;16.17;100.00;98723.13;5085714;28;20036;-75
2022/05/09 07:07:32;;;;;;;14.00;9.40;;;;;;;16.39;100.00;98727.84;5088100;28;20397;-79
2022/05/09 07:09:58;;;;;;;12.50;8.15;;;;;;;15.94;100.00;98722.28;5090089;28;20028;-77
2022/05/09 07:12:23;;;;;;;16.45;8.55;;;;;;;16.23;100.00;98730.16;5093201;28;20031;-85
2022/05/09 07:14:49;;;;;;;11.30;7.72;;;;;;;16.35;100.00;98721.34;5093893;28;20024;-86
2022/05/09 07:17:15;;;;;;;12.02;7.30;;;;;;;16.18;97.65;98719.25;5091958;28;20028;-82
2022/05/09 07:19:41;;;;;;;13.50;8.15;;;;;;;15.86;100.00;98720.28;5099489;28;20169;-88
2022/05/09 07:22:06;;;;;;;14.95;7.38;;;;;;;16.24;100.00;98731.81;5098421;28;20028;-83
2022/05/09 07:24:32;;;;;;;17.60;7.78;;;;;;;16.34;98.08;98719.69;5094483;28;20028;-85
2022/05/09 07:26:57;;;;;;;15.18;7.95;;;;;;;16.35;98.04;98726.88;5090200;28;21196;-86
2022/05/09 07:29:23;;;;;;;12.25;7.13;;;;;;;17.26;95.59;98724.47;5091166;28;20028;-81
2022/05/09 07:31:50;;;;;;;10.95;6.45;;;;;;;17.59;91.47;98739.56;5093345;28;20499;-81
2022/05/09 07:34:16;;;;;;;11.35;6.22;;;;;;;17.79;88.75;98738.97;5090374;28;20028;-80
2022/05/09 07:36:42;;;;;;;8.75;6.20;;;;;;;18.62;88.48;98740.47;5091213;28;20042;-79
2022/05/09 07:39:07;;;;;;;13.90;6.30;;;;;;;18.39;88.12;98732.59;5088872;28;20047;-82
2022/05/09 07:41:33;;;;;;;11.18;5.88;;;;;;;19.19;85.60;98734.59;5090447;28;20392;-81
2022/05/09 07:43:59;;;;;;;8.63;5.82;;;;;;;18.89;81.60;98717.06;5096060;28;20028;-84
2022/05/09 07:46:25;;;;;;;9.00;5.72;;;;;;;19.48;82.29;98733.84;5098984;28;20135;-80
2022/05/09 07:48:50;;;;;;;9.02;5.63;;;;;;;19.89;80.06;98730.34;5107240;28;20056;-79
2022/05/09 07:51:19;;;;;;;6.57;4.68;;;;;;;20.26;76.99;98729.41;5111238;28;20030;-78
2022/05/09 07:53:44;;;;;;;10.60;5.45;;;;;;;19.90;76.93;98731.94;5107946;28;20062;-80
2022/05/09 07:56:10;;;;;;;8.00;5.28;;;;;;;19.57;77.04;98743.75;5103673;28;20024;-79
2022/05/09 07:58:35;;;;;;;15.38;5.15;;;;;;;19.39;80.08;98724.72;5106897;28;20443;-80
2022/05/09 08:01:02;;;;;;;12.23;5.65;;;;;;;19.63;78.03;98744.38;5106357;28;20021;-81
2022/05/09 08:03:30;;;;;;;9.27;4.90;;;;;;;19.72;78.14;98734.03;5106606;28;20016;-83
2022/05/09 08:05:58;;;;;;;9.38;5.82;;;;;;;20.24;76.79;98735.28;5104675;28;20031;-84
2022/05/09 08:08:36;;;;;;;11.02;5.78;;;;;;;20.55;71.96;98739.63;5108197;28;20054;-92
2022/05/09 08:11:03;;;;;;;15.80;6.40;;;;;;;21.27;68.92;98736.22;5103401;28;20016;-81
2022/05/09 08:13:33;;;;;;;7.90;4.88;;;;;;;22.03;66.21;98741.94;5108838;28;20032;-84
2022/05/09 08:16:01;;;;;;;12.43;6.47;;;;;;;22.37;64.31;98737.78;5108203;28;20058;-81
2022/05/09 08:18:27;;;;;;;8.50;4.88;;;;;;;22.99;61.21;98741.97;5102213;28;20013;-82
2022/05/09 08:20:55;;;;;;;9.10;5.05;;;;;;;24.70;56.14;98740.88;5092211;28;20041;-82
2022/05/09 08:23:22;;;;;;;9.40;5.25;;;;;;;24.75;54.51;98734.97;5092878;28;20073;-81
2022/05/09 08:25:51;;;;;;;7.22;4.32;;;;;;;26.67;49.80;98748.19;5100502;28;20020;-83
2022/05/09 08:28:18;;;;;;;7.20;4.55;;;;;;;25.70;50.46;98741.56;5101429;28;20028;-81
2022/05/09 08:30:44;;;;;;;7.38;5.07;;;;;;;25.26;54.13;98744.00;5099098;28;20020;-82
2022/05/09 08:33:15;;;;;;;9.75;4.65;;;;;;;25.99;51.21;98742.81;5101555;28;20020;-80
2022/05/09 08:35:45;;;;;;;7.15;5.03;;;;;;;26.24;50.38;98738.41;5099630;28;20029;-84
2022/05/09 08:38:14;;;;;;;11.25;5.63;;;;;;;26.23;49.37;98742.41;5093058;28;20024;-81
2022/05/09 08:41:03;;;;;;;7.55;4.47;;;;;;;25.07;51.60;98741.22;5093798;28;20023;-80
2022/05/09 08:43:44;;;;;;;7.38;5.05;;;;;;;23.23;55.89;98737.03;5084516;28;20123;-83
2022/05/09 08:46:13;;;;;;;8.13;4.80;;;;;;;23.19;55.14;98719.38;5088219;28;20040;-77
2022/05/09 08:48:45;;;;;;;5.80;4.35;;;;;;;24.27;52.51;98733.59;5093836;28;20028;-84
2022/05/09 08:51:27;;;;;;;6.18;4.65;;;;;;;24.09;55.13;98739.94;5091979;28;20500;-77
2022/05/09 08:53:59;;;;;;;7.03;4.30;;;;;;;24.00;54.82;98734.53;5092725;28;20028;-78
2022/05/09 08:56:24;;;;;;;6.95;4.93;;;;;;;21.00;61.92;98729.34;5092256;28;20023;-83
2022/05/09 08:59:11;;;;;;;11.15;5.22;;;;;;;22.13;60.33;98727.50;5092863;28;20047;-78
2022/05/09 09:01:43;;;;;;;6.13;4.22;;;;;;;22.41;59.09;98725.56;5093980;28;20493;-82
2022/05/09 09:04:23;;;;;;;7.38;4.57;;;;;;;23.81;55.57;98731.69;5091975;28;20483;-83
2022/05/09 09:06:55;;;;;;;8.45;5.00;;;;;;;23.02;55.16;98730.91;5093463;28;20057;-85
2022/05/09 09:09:38;;;;;;;7.65;4.82;;;;;;;23.16;54.70;98734.03;5096407;28;20020;-81
2022/05/09 09:12:15;;;;;;;12.98;4.38;;;;;;;23.28;52.70;98731.16;5097437;28;20024;-85
2022/05/09 09:14:46;;;;;;;7.50;4.97;;;;;;;23.13;53.84;98726.38;5096972;28;20019;-82
2022/05/09 09:17:24;;;;;;;5.32;4.28;;;;;;;22.06;55.64;98741.22;5096089;28;20043;-87
2022/05/09 09:19:56;;;;;;;9.20;6.00;;;;;;;22.02;56.26;98743.09;5094655;28;20004;-79
2022/05/09 09:22:49;;;;;;;7.50;5.22;;;;;;;22.22;55.80;98733.75;5097739;28;20434;-84
2022/05/09 09:25:48;;;;;;;15.88;5.15;;;;;;;21.72;57.12;98734.16;5095959;28;20479;-82
2022/05/09 09:28:17;;;;;;;6.40;4.57;;;;;;;22.10;55.80;98733.78;5098059;28;20544;-82
2022/05/09 09:30:44;;;;;;;6.30;4.30;;;;;;;22.97;54.22;98728.34;5083525;28;20020;-76
2022/05/09 09:33:15;;;;;;;5.38;4.25;;;;;;;23.02;53.27;98727.28;5092032;28;20020;-76
2022/05/09 09:36:08;;;;;;;5.93;3.92;;;;;;;23.96;51.87;98737.25;5090934;28;20028;-74
2022/05/09 09:38:56;;;;;;;10.02;4.40;;;;;;;22.67;52.93;98724.34;5090308;28;20119;-75
2022/05/09 09:41:30;;;;;;;6.78;4.05;;;;;;;23.00;53.18;98732.41;5090097;28;20028;-75
2022/05/09 09:44:09;;;;;;;5.80;4.27;;;;;;;22.15;54.12;98727.97;5074729;28;20110;-76
2022/05/09 09:47:00;;;;;;;6.00;4.22;;;;;;;23.70;51.17;98716.66;5112745;28;20633;-76
2022/05/09 09:49:26;;;;;;;7.43;4.22;;;;;;;22.97;51.51;98711.59;5110678;28;20031;-75
2022/05/09 09:51:51;;;;;;;9.02;4.47;;;;;;;24.34;49.66;98708.56;5112221;28;20031;-75
2022/05/09 09:54:21;;;;;;;6.10;4.30;;;;;;;24.67;48.55;98713.66;5112091;28;20031;-74
2022/05/09 09:56:46;;;;;;;9.32;5.25;;;;;;;22.61;52.11;98698.66;5087402;28;20019;-76
2022/05/09 09:59:21;;;;;;;6.65;4.82;;;;;;;22.48;52.40;98696.25;5088275;28;20032;-75
2022/05/09 10:02:07;;;;;;;7.05;3.70;;;;;;;21.94;53.38;98704.22;5091133;28;20027;-75
2022/05/09 10:04:33;;;;;;;7.38;4.50;;;;;;;23.04;51.66;98692.25;5091343;28;20146;-79
2022/05/09 10:07:12;;;;;;;8.27;4.32;;;;;;;23.05;52.23;98707.03;5090793;28;20020;-75
2022/05/09 10:09:37;;;;;;;5.05;4.20;;;;;;;23.36;52.89;98702.28;5086909;28;20004;-75
2022/05/09 10:12:26;;;;;;;5.55;4.03;;;;;;;22.09;54.61;98697.91;5090110;28;20031;-74
2022/05/09 10:14:52;;;;;;;6.53;4.60;;;;;;;21.62;55.74;98700.41;5091290;28;20028;-75
2022/05/09 10:17:26;;;;;;;10.10;4.85;;;;;;;22.98;52.27;98690.91;5092497;28;20050;-75
2022/05/09 10:19:54;;;;;;;6.75;4.30;;;;;;;22.59;52.96;98686.19;5097302;28;20032;-75
2022/05/09 10:25:26;;;;;;;4.90;3.60;;;;;;;24.20;48.05;98697.09;5094607;28;20058;-73
2022/05/09 10:28:14;;;;;;;5.60;3.88;;;;;;;23.96;49.32;98691.75;5091131;28;20031;-76
2022/05/09 10:30:46;;;;;;;6.38;4.40;;;;;;;22.92;51.99;98682.00;5086737;28;20103;-75
2022/05/09 10:33:32;;;;;;;6.50;4.18;;;;;;;23.52;51.58;98688.31;5084391;28;20024;-75
2022/05/09 10:36:07;;;;;;;7.13;4.53;;;;;;;23.34;51.39;98671.06;5088079;28;20034;-74
2022/05/09 10:39:08;;;;;;;8.50;4.20;;;;;;;23.67;49.59;98672.69;5084707;28;20122;-75
2022/05/09 10:41:41;;;;;;;8.73;4.15;;;;;;;22.08;50.52;98674.81;5086904;28;20077;-77
2022/05/09 10:44:10;;;;;;;6.35;4.03;;;;;;;21.87;53.09;98674.94;5090267;28;20044;-76
2022/05/09 10:46:42;;;;;;;6.60;4.05;;;;;;;22.11;53.66;98673.28;5089125;28;20028;-77
2022/05/09 10:49:17;;;;;;;6.75;4.15;;;;;;;22.44;52.91;98659.91;5088976;28;20083;-75
2022/05/09 10:52:04;;;;;;;7.47;4.55;;;;;;;21.84;55.65;98658.94;5088931;28;20081;-76
2022/05/09 10:54:57;;;;;;;7.82;4.05;;;;;;;21.17;57.90;98662.38;5089644;28;20039;-75
2022/05/09 10:57:47;;;;;;;7.78;4.55;;;;;;;21.15;61.08;98664.69;5087303;28;20029;-81
2022/05/09 11:00:22;;;;;;;7.70;4.78;;;;;;;21.42;60.25;98679.06;5086986;28;20024;-74
2022/05/09 11:02:50;;;;;;;5.82;4.65;;;;;;;21.31;60.25;98668.41;5088168;28;20037;-74
2022/05/09 11:05:15;;;;;;;5.85;5.07;;;;;;;21.55;59.98;98655.63;5087587;28;20516;-80
2022/05/09 11:08:00;;;;;;;8.15;4.28;;;;;;;21.48;59.81;98674.91;5089196;28;20081;-74
2022/05/09 11:10:41;;;;;;;5.97;4.32;;;;;;;21.33;58.13;98670.84;5087345;28;20393;-77
2022/05/09 11:13:27;;;;;;;6.75;4.90;;;;;;;21.20;57.31;98661.69;5088421;28;20503;-77
2022/05/09 11:15:57;;;;;;;;;;;;;;;21.00;56.70;98668.13;5084555;28;20032;-77
2022/05/09 11:18:52;;;;;;;6.95;3.83;;;;;;;21.17;56.35;98658.78;5090445;28;19916;-78
2022/05/09 11:21:19;;;;;;;10.43;4.32;;;;;;;21.04;56.56;98666.28;5087532;28;20101;-75
2022/05/09 11:23:50;;;;;;;8.40;4.55;;;;;;;21.12;58.12;98661.78;5093084;28;20020;-75
2022/05/09 11:26:22;;;;;;;6.38;4.45;;;;;;;21.02;57.54;98660.22;5091765;28;20035;-76
2022/05/09 11:28:59;;;;;;;11.20;4.05;;;;;;;21.35;57.71;98651.81;5090067;28;20040;-74
2022/05/09 11:31:46;;;;;;;6.18;4.43;;;;;;;21.05;58.61;98648.41;5092436;28;20036;-76
2022/05/09 11:34:56;;;;;;;6.45;4.32;;;;;;;21.04;59.13;98654.34;5090708;28;20020;-75
2022/05/09 11:37:58;;;;;;;8.10;4.53;;;;;;;21.02;60.17;98645.53;5084175;28;20047;-74
2022/05/09 11:40:51;;;;;;;6.60;4.63;;;;;;;20.85;58.58;98643.78;5092026;28;20032;-73
2022/05/09 11:43:38;;;;;;;7.00;4.85;;;;;;;20.42;56.25;98649.00;5093378;28;20744;-73